sensor_id;sensor_type;location;lat;lon;timestamp;P1;durP1;ratioP1;P2;durP2;ratioP2
46090;SDS011;31826;53.572;10.170;2023-11-19T00:00:46;13.93;;;6.22;;
46090;SDS011;31826;53.572;10.170;2023-11-19T00:03:12;15.07;;;6.05;;
46090;SDS011;31826;53.572;10.170;2023-11-19T00:05:38;14.45;;;6.25;;
46090;SDS011;31826;53.572;10.170;2023-11-19T00:08:04;13.35;;;5.93;;
46090;SDS011;31826;53.572;10.170;2023-11-19T00:10:31;14.35;;;6.07;;
46090;SDS011;31826;53.572;10.170;2023-11-19T00:12:57;12.98;;;6.38;;
46090;SDS011;31826;53.572;10.170;2023-11-19T00:15:23;11.80;;;5.28;;
46090;SDS011;31826;53.572;10.170;2023-11-19T00:17:49;13.23;;;6.10;;
46090;SDS011;31826;53.572;10.170;2023-11-19T00:20:15;12.55;;;5.57;;
46090;SDS011;31826;53.572;10.170;2023-11-19T00:22:46;10.88;;;5.15;;
46090;SDS011;31826;53.572;10.170;2023-11-19T00:25:22;12.55;;;5.35;;
46090;SDS011;31826;53.572;10.170;2023-11-19T00:27:48;10.13;;;5.10;;
46090;SDS011;31826;53.572;10.170;2023-11-19T00:30:14;12.10;;;5.17;;
46090;SDS011;31826;53.572;10.170;2023-11-19T00:32:40;11.98;;;4.57;;
46090;SDS011;31826;53.572;10.170;2023-11-19T00:35:06;9.80;;;4.50;;
46090;SDS011;31826;53.572;10.170;2023-11-19T00:37:33;11.50;;;4.68;;
46090;SDS011;31826;53.572;10.170;2023-11-19T00:39:59;9.75;;;4.57;;
46090;SDS011;31826;53.572;10.170;2023-11-19T00:42:24;12.90;;;4.10;;
46090;SDS011;31826;53.572;10.170;2023-11-19T00:44:51;9.60;;;4.50;;
46090;SDS011;31826;53.572;10.170;2023-11-19T00:47:17;9.80;;;4.20;;
46090;SDS011;31826;53.572;10.170;2023-11-19T00:49:45;7.70;;;3.42;;
46090;SDS011;31826;53.572;10.170;2023-11-19T00:52:15;7.63;;;3.55;;
46090;SDS011;31826;53.572;10.170;2023-11-19T00:54:44;8.63;;;3.65;;
46090;SDS011;31826;53.572;10.170;2023-11-19T00:57:10;8.20;;;3.33;;
46090;SDS011;31826;53.572;10.170;2023-11-19T00:59:36;7.70;;;3.50;;
46090;SDS011;31826;53.572;10.170;2023-11-19T01:02:02;8.15;;;3.35;;
46090;SDS011;31826;53.572;10.170;2023-11-19T01:04:32;7.05;;;3.28;;
46090;SDS011;31826;53.572;10.170;2023-11-19T01:07:01;7.25;;;3.22;;
46090;SDS011;31826;53.572;10.170;2023-11-19T01:09:29;8.10;;;3.00;;
46090;SDS011;31826;53.572;10.170;2023-11-19T01:11:57;7.68;;;3.33;;
46090;SDS011;31826;53.572;10.170;2023-11-19T01:14:23;8.40;;;3.53;;
46090;SDS011;31826;53.572;10.170;2023-11-19T01:16:49;8.52;;;3.60;;
46090;SDS011;31826;53.572;10.170;2023-11-19T01:19:15;8.13;;;3.50;;
46090;SDS011;31826;53.572;10.170;2023-11-19T01:21:40;8.77;;;3.50;;
46090;SDS011;31826;53.572;10.170;2023-11-19T01:24:06;5.77;;;2.70;;
46090;SDS011;31826;53.572;10.170;2023-11-19T01:26:34;6.15;;;2.65;;
46090;SDS011;31826;53.572;10.170;2023-11-19T01:29:00;5.32;;;2.47;;
46090;SDS011;31826;53.572;10.170;2023-11-19T01:31:26;7.95;;;2.70;;
46090;SDS011;31826;53.572;10.170;2023-11-19T01:33:52;5.95;;;2.90;;
46090;SDS011;31826;53.572;10.170;2023-11-19T01:36:17;5.80;;;2.50;;
46090;SDS011;31826;53.572;10.170;2023-11-19T01:38:43;5.07;;;2.33;;
46090;SDS011;31826;53.572;10.170;2023-11-19T01:41:09;4.85;;;2.33;;
46090;SDS011;31826;53.572;10.170;2023-11-19T01:43:36;4.68;;;2.10;;
46090;SDS011;31826;53.572;10.170;2023-11-19T01:46:03;4.67;;;2.10;;
46090;SDS011;31826;53.572;10.170;2023-11-19T01:48:32;5.00;;;2.30;;
46090;SDS011;31826;53.572;10.170;2023-11-19T01:50:59;5.47;;;2.43;;
46090;SDS011;31826;53.572;10.170;2023-11-19T01:53:26;6.53;;;2.25;;
46090;SDS011;31826;53.572;10.170;2023-11-19T01:55:52;4.03;;;2.00;;
46090;SDS011;31826;53.572;10.170;2023-11-19T01:58:18;4.53;;;2.07;;
46090;SDS011;31826;53.572;10.170;2023-11-19T02:00:44;4.35;;;2.30;;
46090;SDS011;31826;53.572;10.170;2023-11-19T02:03:11;4.45;;;2.08;;
46090;SDS011;31826;53.572;10.170;2023-11-19T02:05:37;4.00;;;1.85;;
46090;SDS011;31826;53.572;10.170;2023-11-19T02:08:04;3.05;;;1.83;;
46090;SDS011;31826;53.572;10.170;2023-11-19T02:10:30;3.37;;;1.80;;
46090;SDS011;31826;53.572;10.170;2023-11-19T02:12:57;4.28;;;2.10;;
46090;SDS011;31826;53.572;10.170;2023-11-19T02:15:26;4.00;;;1.70;;
46090;SDS011;31826;53.572;10.170;2023-11-19T02:17:51;3.00;;;1.60;;
46090;SDS011;31826;53.572;10.170;2023-11-19T02:20:17;3.30;;;1.70;;
46090;SDS011;31826;53.572;10.170;2023-11-19T02:22:45;2.95;;;1.50;;
46090;SDS011;31826;53.572;10.170;2023-11-19T02:25:23;3.88;;;1.70;;
46090;SDS011;31826;53.572;10.170;2023-11-19T02:28:01;2.60;;;1.58;;
46090;SDS011;31826;53.572;10.170;2023-11-19T02:30:28;3.08;;;1.70;;
46090;SDS011;31826;53.572;10.170;2023-11-19T02:32:57;5.30;;;1.90;;
46090;SDS011;31826;53.572;10.170;2023-11-19T02:35:26;3.30;;;1.58;;
46090;SDS011;31826;53.572;10.170;2023-11-19T02:37:52;3.50;;;1.70;;
46090;SDS011;31826;53.572;10.170;2023-11-19T02:40:18;3.97;;;2.00;;
46090;SDS011;31826;53.572;10.170;2023-11-19T02:42:43;3.10;;;1.70;;
46090;SDS011;31826;53.572;10.170;2023-11-19T02:45:09;2.35;;;1.60;;
46090;SDS011;31826;53.572;10.170;2023-11-19T02:47:42;3.40;;;1.70;;
46090;SDS011;31826;53.572;10.170;2023-11-19T02:50:09;2.80;;;1.55;;
46090;SDS011;31826;53.572;10.170;2023-11-19T02:52:41;3.20;;;1.65;;
46090;SDS011;31826;53.572;10.170;2023-11-19T02:55:11;3.03;;;2.00;;
46090;SDS011;31826;53.572;10.170;2023-11-19T02:57:40;2.78;;;1.60;;
46090;SDS011;31826;53.572;10.170;2023-11-19T03:00:19;2.95;;;1.65;;
46090;SDS011;31826;53.572;10.170;2023-11-19T03:03:11;3.50;;;1.80;;
46090;SDS011;31826;53.572;10.170;2023-11-19T03:05:48;3.92;;;1.90;;
46090;SDS011;31826;53.572;10.170;2023-11-19T03:08:17;3.95;;;2.00;;
46090;SDS011;31826;53.572;10.170;2023-11-19T03:10:43;4.90;;;1.90;;
46090;SDS011;31826;53.572;10.170;2023-11-19T03:13:12;3.50;;;1.80;;
46090;SDS011;31826;53.572;10.170;2023-11-19T03:15:42;3.55;;;1.80;;
46090;SDS011;31826;53.572;10.170;2023-11-19T03:18:08;3.38;;;1.83;;
46090;SDS011;31826;53.572;10.170;2023-11-19T03:20:33;3.30;;;1.83;;
46090;SDS011;31826;53.572;10.170;2023-11-19T03:22:59;4.68;;;2.03;;
46090;SDS011;31826;53.572;10.170;2023-11-19T03:25:28;4.10;;;2.03;;
46090;SDS011;31826;53.572;10.170;2023-11-19T03:28:02;4.47;;;2.03;;
46090;SDS011;31826;53.572;10.170;2023-11-19T03:30:28;3.10;;;1.90;;
46090;SDS011;31826;53.572;10.170;2023-11-19T03:32:55;5.00;;;2.00;;
46090;SDS011;31826;53.572;10.170;2023-11-19T03:35:22;4.30;;;2.17;;
46090;SDS011;31826;53.572;10.170;2023-11-19T03:37:48;3.67;;;1.92;;
46090;SDS011;31826;53.572;10.170;2023-11-19T03:40:14;3.00;;;1.77;;
46090;SDS011;31826;53.572;10.170;2023-11-19T03:42:40;3.88;;;1.90;;
46090;SDS011;31826;53.572;10.170;2023-11-19T03:45:07;4.10;;;2.05;;
46090;SDS011;31826;53.572;10.170;2023-11-19T03:47:36;5.28;;;2.00;;
46090;SDS011;31826;53.572;10.170;2023-11-19T03:50:02;4.25;;;2.10;;
46090;SDS011;31826;53.572;10.170;2023-11-19T03:52:28;4.75;;;2.20;;
46090;SDS011;31826;53.572;10.170;2023-11-19T03:54:54;5.00;;;2.50;;
46090;SDS011;31826;53.572;10.170;2023-11-19T03:57:21;6.13;;;2.47;;
46090;SDS011;31826;53.572;10.170;2023-11-19T03:59:47;5.70;;;2.50;;
46090;SDS011;31826;53.572;10.170;2023-11-19T04:02:13;5.43;;;2.63;;
46090;SDS011;31826;53.572;10.170;2023-11-19T04:04:39;5.13;;;2.20;;
46090;SDS011;31826;53.572;10.170;2023-11-19T04:07:05;5.90;;;2.65;;
46090;SDS011;31826;53.572;10.170;2023-11-19T04:09:31;6.07;;;2.80;;
46090;SDS011;31826;53.572;10.170;2023-11-19T04:11:58;7.68;;;2.88;;
46090;SDS011;31826;53.572;10.170;2023-11-19T04:14:24;6.57;;;2.90;;
46090;SDS011;31826;53.572;10.170;2023-11-19T04:16:50;7.72;;;3.22;;
46090;SDS011;31826;53.572;10.170;2023-11-19T04:19:16;6.93;;;3.05;;
46090;SDS011;31826;53.572;10.170;2023-11-19T04:21:42;7.07;;;3.27;;
46090;SDS011;31826;53.572;10.170;2023-11-19T04:24:09;6.50;;;3.13;;
46090;SDS011;31826;53.572;10.170;2023-11-19T04:26:41;7.00;;;3.25;;
46090;SDS011;31826;53.572;10.170;2023-11-19T04:29:11;8.02;;;3.47;;
46090;SDS011;31826;53.572;10.170;2023-11-19T04:31:38;6.70;;;3.13;;
46090;SDS011;31826;53.572;10.170;2023-11-19T04:34:04;8.27;;;3.55;;
46090;SDS011;31826;53.572;10.170;2023-11-19T04:36:31;7.00;;;3.10;;
46090;SDS011;31826;53.572;10.170;2023-11-19T04:38:58;6.60;;;3.07;;
46090;SDS011;31826;53.572;10.170;2023-11-19T04:41:24;9.38;;;4.05;;
46090;SDS011;31826;53.572;10.170;2023-11-19T04:43:52;7.82;;;4.03;;
46090;SDS011;31826;53.572;10.170;2023-11-19T04:46:18;8.63;;;3.90;;
46090;SDS011;31826;53.572;10.170;2023-11-19T04:48:44;7.93;;;3.67;;
46090;SDS011;31826;53.572;10.170;2023-11-19T04:51:10;8.40;;;3.90;;
46090;SDS011;31826;53.572;10.170;2023-11-19T04:53:35;9.60;;;3.65;;
46090;SDS011;31826;53.572;10.170;2023-11-19T04:56:07;9.88;;;3.80;;
46090;SDS011;31826;53.572;10.170;2023-11-19T04:58:36;8.80;;;3.73;;
46090;SDS011;31826;53.572;10.170;2023-11-19T05:01:02;9.67;;;3.67;;
46090;SDS011;31826;53.572;10.170;2023-11-19T05:03:29;10.55;;;4.10;;
46090;SDS011;31826;53.572;10.170;2023-11-19T05:05:58;9.23;;;3.67;;
46090;SDS011;31826;53.572;10.170;2023-11-19T05:08:24;10.65;;;4.40;;
46090;SDS011;31826;53.572;10.170;2023-11-19T05:10:50;10.57;;;4.33;;
46090;SDS011;31826;53.572;10.170;2023-11-19T05:13:15;10.27;;;4.47;;
46090;SDS011;31826;53.572;10.170;2023-11-19T05:15:42;10.65;;;4.18;;
46090;SDS011;31826;53.572;10.170;2023-11-19T05:18:07;11.20;;;4.65;;
46090;SDS011;31826;53.572;10.170;2023-11-19T05:20:33;11.18;;;4.38;;
46090;SDS011;31826;53.572;10.170;2023-11-19T05:22:59;12.05;;;4.50;;
46090;SDS011;31826;53.572;10.170;2023-11-19T05:25:26;9.98;;;4.68;;
46090;SDS011;31826;53.572;10.170;2023-11-19T05:27:52;11.65;;;4.90;;
46090;SDS011;31826;53.572;10.170;2023-11-19T05:30:18;11.68;;;4.97;;
46090;SDS011;31826;53.572;10.170;2023-11-19T05:32:44;16.30;;;5.22;;
46090;SDS011;31826;53.572;10.170;2023-11-19T05:35:10;13.65;;;5.13;;
46090;SDS011;31826;53.572;10.170;2023-11-19T05:37:36;11.95;;;5.35;;
46090;SDS011;31826;53.572;10.170;2023-11-19T05:40:02;14.70;;;5.35;;
46090;SDS011;31826;53.572;10.170;2023-11-19T05:42:38;12.10;;;5.70;;
46090;SDS011;31826;53.572;10.170;2023-11-19T05:45:04;14.45;;;6.35;;
46090;SDS011;31826;53.572;10.170;2023-11-19T05:47:30;17.25;;;6.68;;
46090;SDS011;31826;53.572;10.170;2023-11-19T05:49:56;14.80;;;5.72;;
46090;SDS011;31826;53.572;10.170;2023-11-19T05:52:22;16.10;;;6.80;;
46090;SDS011;31826;53.572;10.170;2023-11-19T05:54:48;16.83;;;6.43;;
46090;SDS011;31826;53.572;10.170;2023-11-19T05:57:16;20.63;;;7.07;;
46090;SDS011;31826;53.572;10.170;2023-11-19T05:59:47;16.13;;;6.72;;
46090;SDS011;31826;53.572;10.170;2023-11-19T06:02:13;18.17;;;6.68;;
46090;SDS011;31826;53.572;10.170;2023-11-19T06:04:39;16.77;;;6.83;;
46090;SDS011;31826;53.572;10.170;2023-11-19T06:07:05;20.30;;;7.00;;
46090;SDS011;31826;53.572;10.170;2023-11-19T06:09:30;16.50;;;6.53;;
46090;SDS011;31826;53.572;10.170;2023-11-19T06:11:58;25.35;;;7.40;;
46090;SDS011;31826;53.572;10.170;2023-11-19T06:14:26;16.23;;;7.30;;
46090;SDS011;31826;53.572;10.170;2023-11-19T06:16:52;16.63;;;6.47;;
46090;SDS011;31826;53.572;10.170;2023-11-19T06:19:18;17.20;;;7.27;;
46090;SDS011;31826;53.572;10.170;2023-11-19T06:21:44;22.93;;;7.63;;
46090;SDS011;31826;53.572;10.170;2023-11-19T06:24:09;19.38;;;7.43;;
46090;SDS011;31826;53.572;10.170;2023-11-19T06:26:35;20.38;;;7.80;;
46090;SDS011;31826;53.572;10.170;2023-11-19T06:29:01;21.17;;;7.97;;
46090;SDS011;31826;53.572;10.170;2023-11-19T06:31:26;21.17;;;7.40;;
46090;SDS011;31826;53.572;10.170;2023-11-19T06:33:52;23.67;;;8.32;;
46090;SDS011;31826;53.572;10.170;2023-11-19T06:36:18;24.25;;;8.98;;
46090;SDS011;31826;53.572;10.170;2023-11-19T06:38:44;22.20;;;8.93;;
46090;SDS011;31826;53.572;10.170;2023-11-19T06:41:09;27.80;;;8.17;;
46090;SDS011;31826;53.572;10.170;2023-11-19T06:43:36;26.73;;;9.50;;
46090;SDS011;31826;53.572;10.170;2023-11-19T06:46:02;23.13;;;9.20;;
46090;SDS011;31826;53.572;10.170;2023-11-19T06:48:31;27.20;;;8.45;;
46090;SDS011;31826;53.572;10.170;2023-11-19T06:50:57;24.02;;;8.15;;
46090;SDS011;31826;53.572;10.170;2023-11-19T06:53:23;29.02;;;8.85;;
46090;SDS011;31826;53.572;10.170;2023-11-19T06:55:49;28.75;;;8.77;;
46090;SDS011;31826;53.572;10.170;2023-11-19T06:58:15;30.17;;;10.50;;
46090;SDS011;31826;53.572;10.170;2023-11-19T07:00:40;26.02;;;8.48;;
46090;SDS011;31826;53.572;10.170;2023-11-19T07:03:06;26.38;;;8.38;;
46090;SDS011;31826;53.572;10.170;2023-11-19T07:05:35;20.02;;;7.63;;
46090;SDS011;31826;53.572;10.170;2023-11-19T07:08:03;26.30;;;7.63;;
46090;SDS011;31826;53.572;10.170;2023-11-19T07:10:32;28.80;;;7.05;;
46090;SDS011;31826;53.572;10.170;2023-11-19T07:12:58;29.50;;;8.18;;
46090;SDS011;31826;53.572;10.170;2023-11-19T07:15:24;29.13;;;7.55;;
46090;SDS011;31826;53.572;10.170;2023-11-19T07:17:50;28.10;;;7.50;;
46090;SDS011;31826;53.572;10.170;2023-11-19T07:20:15;24.77;;;6.80;;
46090;SDS011;31826;53.572;10.170;2023-11-19T07:22:44;39.27;;;7.80;;
46090;SDS011;31826;53.572;10.170;2023-11-19T07:25:12;28.37;;;7.43;;
46090;SDS011;31826;53.572;10.170;2023-11-19T07:27:38;26.30;;;6.78;;
46090;SDS011;31826;53.572;10.170;2023-11-19T07:30:05;30.03;;;6.67;;
46090;SDS011;31826;53.572;10.170;2023-11-19T07:32:32;37.70;;;6.75;;
46090;SDS011;31826;53.572;10.170;2023-11-19T07:34:58;25.13;;;6.15;;
46090;SDS011;31826;53.572;10.170;2023-11-19T07:37:24;23.23;;;6.03;;
46090;SDS011;31826;53.572;10.170;2023-11-19T07:39:50;31.30;;;5.55;;
46090;SDS011;31826;53.572;10.170;2023-11-19T07:42:16;20.40;;;5.55;;
46090;SDS011;31826;53.572;10.170;2023-11-19T07:44:43;21.67;;;5.35;;
46090;SDS011;31826;53.572;10.170;2023-11-19T07:47:09;29.75;;;5.22;;
46090;SDS011;31826;53.572;10.170;2023-11-19T07:49:35;24.45;;;4.53;;
46090;SDS011;31826;53.572;10.170;2023-11-19T07:52:00;26.75;;;4.75;;
46090;SDS011;31826;53.572;10.170;2023-11-19T07:54:28;23.38;;;4.80;;
46090;SDS011;31826;53.572;10.170;2023-11-19T07:56:54;19.75;;;4.60;;
46090;SDS011;31826;53.572;10.170;2023-11-19T07:59:20;23.45;;;4.55;;
46090;SDS011;31826;53.572;10.170;2023-11-19T08:01:46;24.80;;;4.63;;
46090;SDS011;31826;53.572;10.170;2023-11-19T08:04:12;22.08;;;4.60;;
46090;SDS011;31826;53.572;10.170;2023-11-19T08:06:38;20.30;;;5.00;;
46090;SDS011;31826;53.572;10.170;2023-11-19T08:09:05;20.45;;;5.05;;
46090;SDS011;31826;53.572;10.170;2023-11-19T08:11:31;22.83;;;5.10;;
46090;SDS011;31826;53.572;10.170;2023-11-19T08:13:57;24.58;;;5.38;;
46090;SDS011;31826;53.572;10.170;2023-11-19T08:16:23;27.75;;;5.20;;
46090;SDS011;31826;53.572;10.170;2023-11-19T08:18:48;34.67;;;5.00;;
46090;SDS011;31826;53.572;10.170;2023-11-19T08:21:14;28.43;;;5.30;;
46090;SDS011;31826;53.572;10.170;2023-11-19T08:23:40;29.70;;;5.30;;
46090;SDS011;31826;53.572;10.170;2023-11-19T08:26:05;20.55;;;4.68;;
46090;SDS011;31826;53.572;10.170;2023-11-19T08:28:31;27.00;;;4.97;;
46090;SDS011;31826;53.572;10.170;2023-11-19T08:30:59;26.65;;;5.00;;
46090;SDS011;31826;53.572;10.170;2023-11-19T08:33:25;37.53;;;5.90;;
46090;SDS011;31826;53.572;10.170;2023-11-19T08:35:51;28.60;;;5.27;;
46090;SDS011;31826;53.572;10.170;2023-11-19T08:38:17;36.17;;;5.40;;
46090;SDS011;31826;53.572;10.170;2023-11-19T08:40:42;29.65;;;4.90;;
46090;SDS011;31826;53.572;10.170;2023-11-19T08:43:08;34.80;;;4.97;;
46090;SDS011;31826;53.572;10.170;2023-11-19T08:45:34;24.15;;;5.35;;
46090;SDS011;31826;53.572;10.170;2023-11-19T08:47:59;25.47;;;4.77;;
46090;SDS011;31826;53.572;10.170;2023-11-19T08:50:25;29.43;;;4.00;;
46090;SDS011;31826;53.572;10.170;2023-11-19T08:52:51;27.67;;;5.00;;
46090;SDS011;31826;53.572;10.170;2023-11-19T08:55:16;28.15;;;5.30;;
46090;SDS011;31826;53.572;10.170;2023-11-19T08:57:42;32.30;;;4.70;;
46090;SDS011;31826;53.572;10.170;2023-11-19T09:00:08;27.08;;;4.72;;
46090;SDS011;31826;53.572;10.170;2023-11-19T09:02:36;32.85;;;5.30;;
46090;SDS011;31826;53.572;10.170;2023-11-19T09:05:02;24.07;;;4.50;;
46090;SDS011;31826;53.572;10.170;2023-11-19T09:07:29;23.13;;;4.95;;
46090;SDS011;31826;53.572;10.170;2023-11-19T09:09:55;25.57;;;4.87;;
46090;SDS011;31826;53.572;10.170;2023-11-19T09:12:20;32.03;;;5.53;;
46090;SDS011;31826;53.572;10.170;2023-11-19T09:14:46;26.80;;;5.72;;
46090;SDS011;31826;53.572;10.170;2023-11-19T09:17:12;30.33;;;4.78;;
46090;SDS011;31826;53.572;10.170;2023-11-19T09:19:37;39.60;;;5.32;;
46090;SDS011;31826;53.572;10.170;2023-11-19T09:22:03;27.48;;;5.05;;
46090;SDS011;31826;53.572;10.170;2023-11-19T09:24:29;37.27;;;4.33;;
46090;SDS011;31826;53.572;10.170;2023-11-19T09:26:55;28.07;;;4.47;;
46090;SDS011;31826;53.572;10.170;2023-11-19T09:29:21;29.30;;;6.45;;
46090;SDS011;31826;53.572;10.170;2023-11-19T09:31:47;31.83;;;5.13;;
46090;SDS011;31826;53.572;10.170;2023-11-19T09:34:13;36.45;;;5.47;;
46090;SDS011;31826;53.572;10.170;2023-11-19T09:36:38;36.95;;;5.53;;
46090;SDS011;31826;53.572;10.170;2023-11-19T09:39:08;32.72;;;4.88;;
46090;SDS011;31826;53.572;10.170;2023-11-19T09:41:35;34.40;;;5.00;;
46090;SDS011;31826;53.572;10.170;2023-11-19T09:44:01;30.98;;;5.30;;
46090;SDS011;31826;53.572;10.170;2023-11-19T09:46:27;33.47;;;4.78;;
46090;SDS011;31826;53.572;10.170;2023-11-19T09:48:54;31.70;;;5.57;;
46090;SDS011;31826;53.572;10.170;2023-11-19T09:51:22;42.65;;;5.85;;
46090;SDS011;31826;53.572;10.170;2023-11-19T09:53:49;28.90;;;4.90;;
46090;SDS011;31826;53.572;10.170;2023-11-19T09:56:14;38.35;;;4.82;;
46090;SDS011;31826;53.572;10.170;2023-11-19T09:58:42;34.07;;;4.87;;
46090;SDS011;31826;53.572;10.170;2023-11-19T10:01:08;31.88;;;4.80;;
46090;SDS011;31826;53.572;10.170;2023-11-19T10:03:37;32.05;;;4.80;;
46090;SDS011;31826;53.572;10.170;2023-11-19T10:06:08;26.95;;;5.25;;
46090;SDS011;31826;53.572;10.170;2023-11-19T10:08:36;40.97;;;5.40;;
46090;SDS011;31826;53.572;10.170;2023-11-19T10:11:04;35.45;;;5.72;;
46090;SDS011;31826;53.572;10.170;2023-11-19T10:13:36;43.17;;;7.00;;
46090;SDS011;31826;53.572;10.170;2023-11-19T10:16:07;36.53;;;5.00;;
46090;SDS011;31826;53.572;10.170;2023-11-19T10:18:45;27.40;;;4.40;;
46090;SDS011;31826;53.572;10.170;2023-11-19T10:21:12;19.73;;;4.03;;
46090;SDS011;31826;53.572;10.170;2023-11-19T10:23:57;20.15;;;3.58;;
46090;SDS011;31826;53.572;10.170;2023-11-19T10:26:25;23.92;;;4.20;;
46090;SDS011;31826;53.572;10.170;2023-11-19T10:28:51;27.02;;;4.65;;
46090;SDS011;31826;53.572;10.170;2023-11-19T10:31:18;23.23;;;3.85;;
46090;SDS011;31826;53.572;10.170;2023-11-19T10:33:48;25.00;;;6.00;;
46090;SDS011;31826;53.572;10.170;2023-11-19T10:36:13;22.63;;;4.67;;
46090;SDS011;31826;53.572;10.170;2023-11-19T10:38:39;27.90;;;4.50;;
46090;SDS011;31826;53.572;10.170;2023-11-19T10:41:06;22.48;;;4.65;;
46090;SDS011;31826;53.572;10.170;2023-11-19T10:43:42;25.13;;;4.57;;
46090;SDS011;31826;53.572;10.170;2023-11-19T10:46:12;22.67;;;5.10;;
46090;SDS011;31826;53.572;10.170;2023-11-19T10:48:39;25.33;;;4.53;;
46090;SDS011;31826;53.572;10.170;2023-11-19T10:51:06;24.02;;;4.35;;
46090;SDS011;31826;53.572;10.170;2023-11-19T10:53:39;27.80;;;4.60;;
46090;SDS011;31826;53.572;10.170;2023-11-19T10:56:11;23.27;;;4.72;;
46090;SDS011;31826;53.572;10.170;2023-11-19T10:58:42;22.73;;;4.23;;
46090;SDS011;31826;53.572;10.170;2023-11-19T11:01:16;25.25;;;5.15;;
46090;SDS011;31826;53.572;10.170;2023-11-19T11:03:45;25.75;;;4.55;;
46090;SDS011;31826;53.572;10.170;2023-11-19T11:06:12;24.20;;;4.18;;
46090;SDS011;31826;53.572;10.170;2023-11-19T11:08:38;25.67;;;4.07;;
46090;SDS011;31826;53.572;10.170;2023-11-19T11:11:05;21.10;;;4.43;;
46090;SDS011;31826;53.572;10.170;2023-11-19T11:13:32;19.73;;;4.23;;
46090;SDS011;31826;53.572;10.170;2023-11-19T11:15:59;27.88;;;4.72;;
46090;SDS011;31826;53.572;10.170;2023-11-19T11:18:25;27.77;;;5.18;;
46090;SDS011;31826;53.572;10.170;2023-11-19T11:21:04;27.58;;;4.80;;
46090;SDS011;31826;53.572;10.170;2023-11-19T11:30:35;23.08;;;4.80;;
46090;SDS011;31826;53.572;10.170;2023-11-19T11:37:53;26.25;;;4.43;;
46090;SDS011;31826;53.572;10.170;2023-11-19T11:40:28;24.40;;;4.60;;
46090;SDS011;31826;53.572;10.170;2023-11-19T11:42:55;28.90;;;4.13;;
46090;SDS011;31826;53.572;10.170;2023-11-19T11:45:34;23.60;;;4.85;;
46090;SDS011;31826;53.572;10.170;2023-11-19T11:48:11;28.65;;;5.10;;
46090;SDS011;31826;53.572;10.170;2023-11-19T11:50:47;24.00;;;3.83;;
46090;SDS011;31826;53.572;10.170;2023-11-19T11:53:20;21.77;;;3.97;;
46090;SDS011;31826;53.572;10.170;2023-11-19T11:55:53;21.45;;;4.60;;
46090;SDS011;31826;53.572;10.170;2023-11-19T11:58:30;26.08;;;4.60;;
46090;SDS011;31826;53.572;10.170;2023-11-19T12:00:57;29.35;;;4.10;;
46090;SDS011;31826;53.572;10.170;2023-11-19T12:03:26;28.58;;;4.45;;
46090;SDS011;31826;53.572;10.170;2023-11-19T12:05:52;24.90;;;3.75;;
46090;SDS011;31826;53.572;10.170;2023-11-19T12:08:19;23.77;;;4.75;;
46090;SDS011;31826;53.572;10.170;2023-11-19T12:10:51;28.02;;;4.85;;
46090;SDS011;31826;53.572;10.170;2023-11-19T12:13:17;24.27;;;4.47;;
46090;SDS011;31826;53.572;10.170;2023-11-19T12:18:31;26.35;;;4.70;;
46090;SDS011;31826;53.572;10.170;2023-11-19T12:20:57;23.27;;;4.53;;
46090;SDS011;31826;53.572;10.170;2023-11-19T12:23:30;26.25;;;4.50;;
46090;SDS011;31826;53.572;10.170;2023-11-19T12:25:57;29.00;;;4.67;;
46090;SDS011;31826;53.572;10.170;2023-11-19T12:28:23;26.52;;;4.07;;
46090;SDS011;31826;53.572;10.170;2023-11-19T12:30:51;24.15;;;3.88;;
46090;SDS011;31826;53.572;10.170;2023-11-19T12:33:18;23.75;;;4.65;;
46090;SDS011;31826;53.572;10.170;2023-11-19T12:35:45;25.00;;;4.32;;
46090;SDS011;31826;53.572;10.170;2023-11-19T12:38:21;22.52;;;3.85;;
46090;SDS011;31826;53.572;10.170;2023-11-19T12:41:04;22.65;;;4.25;;
46090;SDS011;31826;53.572;10.170;2023-11-19T12:43:30;20.30;;;3.28;;
46090;SDS011;31826;53.572;10.170;2023-11-19T12:45:57;17.95;;;3.35;;
46090;SDS011;31826;53.572;10.170;2023-11-19T12:48:23;23.20;;;3.65;;
46090;SDS011;31826;53.572;10.170;2023-11-19T12:50:52;16.90;;;3.60;;
46090;SDS011;31826;53.572;10.170;2023-11-19T12:53:19;26.58;;;4.95;;
46090;SDS011;31826;53.572;10.170;2023-11-19T12:55:46;19.35;;;4.20;;
46090;SDS011;31826;53.572;10.170;2023-11-19T12:58:27;18.02;;;3.75;;
46090;SDS011;31826;53.572;10.170;2023-11-19T13:01:03;19.37;;;3.73;;
46090;SDS011;31826;53.572;10.170;2023-11-19T13:03:34;21.80;;;4.50;;
46090;SDS011;31826;53.572;10.170;2023-11-19T13:06:01;21.40;;;4.20;;
46090;SDS011;31826;53.572;10.170;2023-11-19T13:08:36;20.60;;;3.83;;
46090;SDS011;31826;53.572;10.170;2023-11-19T13:11:06;18.80;;;3.17;;
46090;SDS011;31826;53.572;10.170;2023-11-19T13:13:33;19.30;;;4.97;;
46090;SDS011;31826;53.572;10.170;2023-11-19T13:16:17;29.50;;;4.55;;
46090;SDS011;31826;53.572;10.170;2023-11-19T13:18:44;21.73;;;3.72;;
46090;SDS011;31826;53.572;10.170;2023-11-19T13:21:09;23.77;;;5.93;;
46090;SDS011;31826;53.572;10.170;2023-11-19T13:23:35;25.52;;;4.35;;
46090;SDS011;31826;53.572;10.170;2023-11-19T13:26:01;28.60;;;4.65;;
46090;SDS011;31826;53.572;10.170;2023-11-19T13:28:28;26.58;;;6.00;;
46090;SDS011;31826;53.572;10.170;2023-11-19T13:30:54;20.17;;;4.40;;
46090;SDS011;31826;53.572;10.170;2023-11-19T13:33:20;26.13;;;3.93;;
46090;SDS011;31826;53.572;10.170;2023-11-19T13:35:45;22.90;;;4.27;;
46090;SDS011;31826;53.572;10.170;2023-11-19T13:38:11;23.55;;;4.97;;
46090;SDS011;31826;53.572;10.170;2023-11-19T13:40:37;21.33;;;3.93;;
46090;SDS011;31826;53.572;10.170;2023-11-19T13:43:04;19.02;;;4.00;;
46090;SDS011;31826;53.572;10.170;2023-11-19T13:45:30;26.08;;;4.97;;
46090;SDS011;31826;53.572;10.170;2023-11-19T13:47:55;22.92;;;3.78;;
46090;SDS011;31826;53.572;10.170;2023-11-19T13:50:21;24.23;;;4.25;;
46090;SDS011;31826;53.572;10.170;2023-11-19T13:52:48;21.08;;;4.00;;
46090;SDS011;31826;53.572;10.170;2023-11-19T13:55:14;26.37;;;3.90;;
46090;SDS011;31826;53.572;10.170;2023-11-19T13:57:40;21.67;;;3.80;;
46090;SDS011;31826;53.572;10.170;2023-11-19T14:00:07;21.95;;;4.75;;
46090;SDS011;31826;53.572;10.170;2023-11-19T14:02:44;20.15;;;4.80;;
46090;SDS011;31826;53.572;10.170;2023-11-19T14:05:12;18.67;;;4.20;;
46090;SDS011;31826;53.572;10.170;2023-11-19T14:07:39;21.15;;;5.05;;
46090;SDS011;31826;53.572;10.170;2023-11-19T14:10:05;20.65;;;3.80;;
46090;SDS011;31826;53.572;10.170;2023-11-19T14:12:32;21.70;;;4.57;;
46090;SDS011;31826;53.572;10.170;2023-11-19T14:14:58;23.35;;;3.88;;
46090;SDS011;31826;53.572;10.170;2023-11-19T14:17:25;23.75;;;3.92;;
46090;SDS011;31826;53.572;10.170;2023-11-19T14:19:51;23.20;;;3.70;;
46090;SDS011;31826;53.572;10.170;2023-11-19T14:22:17;21.83;;;4.25;;
46090;SDS011;31826;53.572;10.170;2023-11-19T14:24:43;24.77;;;4.55;;
46090;SDS011;31826;53.572;10.170;2023-11-19T14:27:10;20.48;;;4.35;;
46090;SDS011;31826;53.572;10.170;2023-11-19T14:29:36;16.77;;;3.07;;
46090;SDS011;31826;53.572;10.170;2023-11-19T14:32:02;20.40;;;3.45;;
46090;SDS011;31826;53.572;10.170;2023-11-19T14:34:29;20.40;;;3.72;;
46090;SDS011;31826;53.572;10.170;2023-11-19T14:36:55;22.83;;;3.97;;
46090;SDS011;31826;53.572;10.170;2023-11-19T14:39:21;16.60;;;3.17;;
46090;SDS011;31826;53.572;10.170;2023-11-19T14:41:47;31.05;;;4.50;;